• Join FlightAware (Why Join?)
  • Login
  • US Flag 
08:40PM EST


 

Airport Tracker/Info


-or-


 

Live Flight TrackerFlight Track Log ✈ AAY855 ✈ 28-Feb-2014 ✈ KSBN - KPIE

Flight Track Log - Related Links

Times and Time Zones

All times are in EST time to prevent confusion due to time zone crossing. See the AAY855 flight status page for this flight to view local times or setup timezone preferences in your user account.

Time Position Orientation Groundspeed Altitude Reporting Facility
EST Latitude Longitude Course Direction KTS MPH feet Rate Location/Type
07:38PM 41.6597 -86.2042 130° Southeast 215 247 4,200  Level Chicago Center
07:39PM 41.6089 -86.1244 130° Southeast 274 315 7,500 2,820 Climbing Chicago Center
07:40PM 41.5544 -86.0417 131° Southeast 294 338 10,100 2,040 Climbing Chicago Center
07:41PM 41.4750 -85.9253 132° Southeast 362 417 11,800 1,860 Climbing Chicago Center
07:42PM 41.4025 -85.8150 131° Southeast 395 455 14,000 2,100 Climbing Chicago Center
07:43PM 41.2565 -85.6113 130° Southeast  Level FlightAware Approximate
07:43PM 41.3258 -85.6997 132° Southeast 417 480 16,200  Level Chicago Center
07:44PM 41.2292 -85.6117 146° Southeast 439 505 18,200 1,980 Climbing Chicago Center
07:45PM 41.1167 -85.5747 166° South 419 482 20,300 1,800 Climbing Chicago Center
07:46PM 41.0011 -85.5353 166° South 429 494 22,000 1,680 Climbing Chicago Center
07:48PM 40.8567 -85.4861 166° South 446 513 23,800 1,620 Climbing Chicago Center
07:49PM 40.7328 -85.4439 166° South 459 528 25,400 1,620 Climbing Chicago Center
07:50PM 40.6192 -85.4042 165° South 459 528 27,200 1,740 Climbing Chicago Center
07:51PM 40.4728 -85.3542 165° South 452 520 29,000 840 Climbing Chicago Center
07:52PM 40.3522 -85.3111 165° South 449 517 29,000 600 Level Chicago Center
07:53PM 40.2311 -85.2708 166° South 448 516 30,300 1,260 Climbing Chicago Center
07:54PM 40.1089 -85.2292 165° South 450 518 31,600 1,020 Climbing Chicago Center
07:55PM 39.9897 -85.1886 165° South 446 513 32,500 660 Climbing Chicago Center
07:56PM 39.8694 -85.1481 165° South 444 511 33,000 240 Climbing Chicago Center
07:57PM 39.7464 -85.1061 165° South 452 520 33,000  Level Chicago Center
07:58PM 39.6211 -85.0639 165° South 459 528 33,000  Level Chicago Center
07:59PM 39.4411 -85.0056 166° South 463 533 33,000  Level Indianapolis Center
08:00PM 39.3136 -84.9639 166° South 467 537 33,000  Level Indianapolis Center
08:01PM 39.1850 -84.9211 166° South 472 543 33,000  Level Indianapolis Center
08:02PM 39.0469 -84.8769 166° South 476 548 33,000  Level Indianapolis Center
08:03PM 38.9169 -84.8342 166° South 477 549 33,000  Level Indianapolis Center
08:04PM 38.7972 -84.7947 166° South 477 549 33,000  Level Indianapolis Center
08:05PM 38.6397 -84.7436 166° South 476 548 33,000  Level Indianapolis Center
08:06PM 38.5100 -84.7006 165° South 477 549 33,000  Level Indianapolis Center
08:07PM 38.3806 -84.6617 167° South 477 549 33,000  Level Indianapolis Center
08:08PM 38.2525 -84.6186 165° South 477 549 33,000  Level Indianapolis Center
08:09PM 38.1089 -84.5736 166° South 477 549 33,000  Level Indianapolis Center
08:10PM 37.9936 -84.5347 165° South 477 549 33,000  Level Indianapolis Center
08:11PM 37.8536 -84.4919 166° South 477 549 33,000  Level Indianapolis Center
08:12PM 37.7142 -84.4472 166° South 477 549 33,000  Level Indianapolis Center
08:14PM 37.5853 -84.4083 167° South 477 549 33,000  Level Indianapolis Center
08:15PM 37.4561 -84.3681 166° South 477 549 33,000  Level Indianapolis Center
08:16PM 37.3283 -84.3283 166° South 477 549 33,000  Level Indianapolis Center
08:17PM 37.2003 -84.2886 166° South 476 548 33,000  Level Indianapolis Center
08:18PM 37.0717 -84.2478 166° South 476 548 33,000  Level Indianapolis Center
08:19PM 36.9214 -84.2022 166° South 476 548 33,000  Level Indianapolis Center
08:20PM 36.7947 -84.1636 166° South 474 545 33,000  Level Indianapolis Center
08:21PM 36.6656 -84.1236 166° South 474 545 33,000  Level Indianapolis Center
08:22PM 36.5383 -84.0853 166° South 474 545 33,000  Level Indianapolis Center
08:23PM 36.4111 -84.0594 171° South 473 544 33,000  Level Indianapolis Center
08:24PM 36.2839 -84.0758 186° South 462 532 33,000  Level Indianapolis Center
08:25PM 36.1558 -84.0944 187° South 461 531 33,000  Level Indianapolis Center
08:25PM 36.0542 -84.1133 189° South 458 527 33,000  Level Atlanta Center
08:26PM 35.9269 -84.1286 186° South 458 527 33,000  Level Atlanta Center
08:27PM 35.7994 -84.1464 186° South 464 534 33,000  Level Atlanta Center
08:28PM 35.6744 -84.1614 186° South 464 534 33,000  Level Atlanta Center
08:29PM 35.5492 -84.1792 187° South 459 528 33,000  Level Atlanta Center
08:30PM 35.4261 -84.1942 186° South 459 528 33,000  Level Atlanta Center
08:31PM 35.3031 -84.2119 187° South 454 522 33,000  Level Atlanta Center
08:32PM 35.1944 -84.2269 186° South 449 517 33,000  Level Atlanta Center
08:33PM 35.0714 -84.2444 187° South 443 510 33,000  Level Atlanta Center
08:34PM 34.9503 -84.2617 187° South 443 510 33,000  Level Atlanta Center
08:35PM 34.8167 -84.2742 184° South 443 510 33,000  Level Atlanta Center
08:36PM 34.6956 -84.2914 187° South 443 510 33,000  Level Atlanta Center
08:37PM 34.5725 -84.3086 187° South 443 510 33,000  Level Atlanta Center
08:38PM 34.4472 -84.3233 186° South 443 510 33,000  Level Atlanta Center
08:39PM 34.3239 -84.3431 188° South 443 510 33,000  Level Atlanta Center
08:40PM 34.2008 -84.3578 186° South 450 518 33,000  Level Atlanta Center
08:41PM 34.0797 -84.3747 187° South 462 532 33,000  Level Atlanta Center
08:42PM 33.9544 -84.3944 187° South 470 541 33,000  Level Atlanta Center
08:43PM 33.8250 -84.4089 185° South 464 534 33,000  Level Atlanta Center
08:44PM 33.6975 -84.4258 186° South 464 534 33,000  Level Atlanta Center
08:45PM 33.5597 -84.4353 183° South 464 534 33,000  Level Atlanta Center
08:46PM 33.4306 -84.4322 179° South 464 534 33,000  Level Atlanta Center
08:47PM 33.2989 -84.4289 179° South 464 534 33,000  Level Atlanta Center
08:48PM 33.1694 -84.4258 179° South 458 527 33,000  Level Atlanta Center
08:49PM 33.0381 -84.4278 181° South 463 533 33,000  Level Atlanta Center
08:50PM 32.9108 -84.4247 179° South 463 533 33,000  Level Atlanta Center
08:51PM 32.7792 -84.4192 178° South 470 541 33,000  Level Atlanta Center
08:52PM 32.6414 -84.4164 178° South 481 554 33,000  Level Atlanta Center
08:53PM 32.6566 -84.4153 178° South  Level FlightAware Approximate
08:56PM 32.2139 -84.4075 179° South 495 570 33,000  Level Jacksonville Center
08:57PM 32.0722 -84.3881 173° South 501 577 33,000  Level Jacksonville Center
08:58PM 31.9328 -84.3467 166° South 511 588 33,000  Level Jacksonville Center
08:59PM 31.7933 -84.2981 163° South 516 594 33,000  Level Jacksonville Center
09:00PM 31.6497 -84.2519 165° South 521 600 33,000  Level Jacksonville Center
09:01PM 31.5061 -84.2083 165° South 531 611 33,000  Level Jacksonville Center
09:02PM 31.3583 -84.1625 165° South 536 617 33,000  Level Jacksonville Center
09:03PM 31.2128 -84.1169 165° South 541 623 33,000  Level Jacksonville Center
09:04PM 31.0669 -84.0714 165° South 541 623 33,000  Level Jacksonville Center
09:05PM 30.9214 -84.0258 165° South 541 623 33,000  Level Jacksonville Center
09:06PM 30.7733 -83.9806 165° South 546 628 33,000  Level Jacksonville Center
09:07PM 30.6256 -83.9356 165° South 546 628 33,000 -60 Level Jacksonville Center
09:08PM 30.4839 -83.8906 165° South 540 621 32,900 -60 Descending Jacksonville Center
09:09PM 30.3319 -83.8433 165° South 551 634 32,900  Level Jacksonville Center
09:10PM 30.1839 -83.7986 165° South 551 634 32,900  Level Jacksonville Center
09:11PM 30.0381 -83.7586 167° South 546 628 32,900  Level Jacksonville Center
09:12PM 29.8922 -83.7119 164° South 546 628 32,900 -420 Level Jacksonville Center
09:13PM 29.7422 -83.6675 166° South 551 634 32,100 -1,440 Descending Jacksonville Center
09:14PM 29.5817 -83.6161 164° South 546 628 30,100 -1,860 Descending Jacksonville Center
09:15PM 29.4381 -83.5744 166° South 546 628 28,400 -1,560 Descending Jacksonville Center
09:16PM 29.2983 -83.5308 165° South 540 621 27,000 -720 Descending Jacksonville Center
09:17PM 29.1567 -83.4681 159° South 533 613 27,000 -60 Level Jacksonville Center
09:18PM 29.0214 -83.3817 151° Southeast 544 626 26,900 -360 Descending Jacksonville Center
09:19PM 28.8881 -83.2956 151° Southeast 544 626 26,300 -1,620 Descending Jacksonville Center
09:20PM 28.7589 -83.2147 151° Southeast 552 635 23,700 -2,640 Descending Jacksonville Center
09:21PM 28.6378 -83.1836 167° South 469 540 21,100 -2,640 Descending Jacksonville Center
09:23PM 28.4667 -83.0833 153° Southeast 403 464 16,400 -2,760 Descending Tampa TRACON
09:23PM 28.4000 -83.0000 132° Southeast 385 443 13,700 -2,460 Descending Tampa TRACON
09:25PM 28.2833 -82.9500 159° South 371 427 11,100 -1,500 Descending Tampa TRACON
09:26PM 28.1833 -82.9167 164° South 345 397 10,300 -1,200 Descending Tampa TRACON
09:27PM 28.1000 -82.9000 170° South 303 349 8,800 -1,920 Descending Tampa TRACON
09:28PM 28.0167 -82.8833 170° South 274 315 6,300 -2,340 Descending Tampa TRACON
09:28PM 27.9667 -82.8667 164° South 266 306 4,900 -2,220 Descending Tampa TRACON
09:29PM 27.9167 -82.8333 149° Southeast 238 274 2,800 -1,200 Descending Tampa TRACON
09:30PM 27.8667 -82.8000 149° Southeast 183 211 2,600 -300 Descending Tampa TRACON
09:31PM 27.8333 -82.7500 127° Southeast 170 196 2,200 -660 Descending Tampa TRACON
09:32PM 27.8333 -82.7000 90° East 140 161 1,300 -720 Descending Tampa TRACON
09:33PM 27.8667 -82.6833 24° Northeast 127 146 800 -600 Descending Tampa TRACON
09:34PM 27.9000 -82.6833 360° North 135 155 200 -720 Descending Tampa TRACON